Baltimore, Maryland
Traffic Map
Current Weather Conditions
Baltimore, Maryland
Few Clouds
Few Clouds
16°
Feels Like: 16°
Wind Chill: 16° Ceiling: Unl
Heat Index: 16° Visibility: 10mi
Dew Point: 13° Wind: 3mph
Humidity: 86% Direction: 250° (WSW)
Pressure: 30.09in Gusts: 0mph
Raw Report DataKBWI 311054Z 25003KT 10SM FEW090 16/13 A3009 RMK AO2 SLP186 T01560133 $
Traffic Incident Summary
Active as of:
Severity:
Category:
InformationThere was an issue retrieving the traffic information for this location. Please try a different location or try again shortly.
Advertisements
Track Severe Weather on mobile